Time;durP1;ratioP1;P1;durP2;ratioP2;P2;SDS_P1;SDS_P2;PMS_P1;PMS_P2;Temp;Humidity;BMP_temperature;BMP_pressure;BME280_temperature;BME280_humidity;BME280_pressure;Samples;Min_cycle;Max_cycle;Signal;HPM_P1;HPM_P2
2022/11/24 00:00:24;;;;;;;24.15;12.82;;;19.70;55.80;;;;;;4903097;29;20072;-74
2022/11/24 00:02:49;;;;;;;22.88;12.60;;;19.60;55.70;;;;;;4921097;29;20036;-74
2022/11/24 00:05:16;;;;;;;24.15;12.93;;;19.60;55.60;;;;;;4904282;29;20501;-74
2022/11/24 00:07:41;;;;;;;20.15;11.95;;;19.60;55.60;;;;;;4918274;29;20143;-74
2022/11/24 00:10:07;;;;;;;21.23;11.77;;;19.60;55.60;;;;;;4887514;29;20154;-75
2022/11/24 00:12:33;;;;;;;20.42;11.77;;;19.60;55.60;;;;;;4900217;29;20046;-73
2022/11/24 00:14:58;;;;;;;20.70;11.98;;;19.60;55.60;;;;;;4922241;29;20126;-74
2022/11/24 00:17:24;;;;;;;21.33;11.25;;;19.60;55.50;;;;;;4897410;29;20421;-74
2022/11/24 00:19:50;;;;;;;19.80;11.93;;;19.60;55.50;;;;;;4918705;29;20040;-74
2022/11/24 00:22:15;;;;;;;22.33;11.70;;;19.60;55.40;;;;;;4889058;29;20040;-74
2022/11/24 00:24:41;;;;;;;19.48;11.25;;;19.60;55.40;;;;;;4899151;29;20063;-74
2022/11/24 00:27:06;;;;;;;17.85;10.73;;;19.60;55.30;;;;;;4920758;29;20032;-74
2022/11/24 00:29:32;;;;;;;16.48;10.38;;;19.60;55.20;;;;;;4895594;29;20084;-74
2022/11/24 00:31:58;;;;;;;19.65;10.93;;;19.60;55.20;;;;;;4906169;29;20396;-74
2022/11/24 00:34:23;;;;;;;18.45;10.20;;;19.60;55.20;;;;;;4894080;29;20040;-74
2022/11/24 00:36:49;;;;;;;18.42;10.75;;;19.70;55.20;;;;;;4917691;29;20063;-74
2022/11/24 00:39:15;;;;;;;21.75;10.38;;;19.70;55.30;;;;;;4909893;29;20048;-74
2022/11/24 00:41:42;;;;;;;16.77;10.55;;;19.70;55.20;;;;;;4901834;29;20071;-74
2022/11/24 00:44:07;;;;;;;16.55;9.90;;;19.70;55.20;;;;;;4904782;29;20496;-74
2022/11/24 00:46:34;;;;;;;16.90;9.95;;;19.70;55.10;;;;;;4901081;29;20034;-74
2022/11/24 00:48:59;;;;;;;15.40;9.55;;;19.70;55.10;;;;;;4898573;29;20055;-74
2022/11/24 00:51:28;;;;;;;20.50;9.95;;;19.70;55.00;;;;;;4899584;29;20059;-74
2022/11/24 00:53:55;;;;;;;16.90;9.88;;;19.70;55.00;;;;;;4883790;29;20032;-73
2022/11/24 00:56:20;;;;;;;14.93;9.75;;;19.70;55.00;;;;;;4919989;29;20133;-73
2022/11/24 00:58:46;;;;;;;16.60;9.45;;;19.70;54.90;;;;;;4917037;29;20052;-74
2022/11/24 01:01:15;;;;;;;14.10;9.20;;;19.70;54.90;;;;;;4899113;29;20035;-73
2022/11/24 01:03:41;;;;;;;16.25;8.98;;;19.70;54.90;;;;;;4900848;29;20039;-73
2022/11/24 01:06:08;;;;;;;15.25;8.65;;;19.70;54.80;;;;;;4904660;29;20047;-74
2022/11/24 01:08:36;;;;;;;17.55;9.05;;;19.70;54.80;;;;;;4900732;29;20064;-75
2022/11/24 01:11:10;;;;;;;15.23;9.25;;;19.70;54.80;;;;;;4898154;29;20050;-74
2022/11/24 01:13:36;;;;;;;15.40;9.13;;;19.70;54.80;;;;;;4897509;29;20073;-74
2022/11/24 01:16:02;;;;;;;15.77;9.27;;;19.70;54.80;;;;;;4899882;29;20035;-74
2022/11/24 01:18:28;;;;;;;12.82;7.88;;;19.70;54.70;;;;;;4905565;29;20055;-73
2022/11/24 01:20:54;;;;;;;13.40;8.05;;;19.70;54.70;;;;;;4902634;29;20044;-74
2022/11/24 01:23:19;;;;;;;15.15;8.90;;;19.70;54.70;;;;;;4904835;29;20677;-73
2022/11/24 01:25:45;;;;;;;14.38;8.18;;;19.70;54.60;;;;;;4901981;29;20067;-75
2022/11/24 01:28:10;;;;;;;14.13;7.72;;;19.70;54.60;;;;;;4905209;29;20087;-74
2022/11/24 01:30:36;;;;;;;12.15;7.57;;;19.70;54.60;;;;;;4897967;29;21965;-73
2022/11/24 01:33:01;;;;;;;14.60;8.10;;;19.70;54.60;;;;;;4902944;29;20039;-74
2022/11/24 01:35:27;;;;;;;14.25;7.93;;;19.70;55.30;;;;;;4920690;29;20047;-74
2022/11/24 01:37:53;;;;;;;13.25;8.00;;;19.70;54.60;;;;;;4900513;29;20096;-74
2022/11/24 01:40:18;;;;;;;14.98;8.15;;;19.70;54.50;;;;;;4906405;29;20526;-74
2022/11/24 01:42:50;;;;;;;14.02;7.25;;;19.70;54.50;;;;;;4901397;29;20048;-74
2022/11/24 01:45:39;;;;;;;14.55;7.60;;;19.70;54.50;;;;;;4903980;29;20143;-75
2022/11/24 01:48:12;;;;;;;12.52;7.18;;;19.70;54.50;;;;;;4902957;29;20463;-75
2022/11/24 01:50:40;;;;;;;13.82;7.22;;;19.70;54.50;;;;;;4906841;29;20959;-74
2022/11/24 01:53:06;;;;;;;13.82;7.32;;;19.70;54.50;;;;;;4922663;29;20135;-74
2022/11/24 01:55:36;;;;;;;13.65;7.07;;;19.70;54.50;;;;;;4904179;29;20155;-75
2022/11/24 01:58:11;;;;;;;13.15;7.43;;;19.70;54.50;;;;;;4891091;29;20374;-74
2022/11/24 02:00:39;;;;;;;13.68;7.07;;;19.70;54.50;;;;;;4924251;29;20087;-75
2022/11/24 02:03:05;;;;;;;10.32;6.25;;;19.70;54.50;;;;;;4927565;29;20135;-73
2022/11/24 02:05:49;;;;;;;12.15;6.43;;;19.70;54.50;;;;;;4905220;29;20769;-74
2022/11/24 02:08:28;;;;;;;12.55;7.03;;;19.70;54.50;;;;;;4908349;29;20456;-73
2022/11/24 02:10:54;;;;;;;13.43;7.03;;;19.70;54.40;;;;;;4908636;29;20048;-73
2022/11/24 02:13:21;;;;;;;12.55;6.60;;;19.70;54.40;;;;;;4910737;29;20058;-74
2022/11/24 02:15:47;;;;;;;12.25;6.55;;;19.70;54.40;;;;;;4921867;29;20044;-74
2022/11/24 02:18:13;;;;;;;10.00;6.40;;;19.70;54.40;;;;;;4904150;29;20051;-74
2022/11/24 02:20:38;;;;;;;9.48;5.38;;;19.70;54.40;;;;;;4906362;29;20039;-74
2022/11/24 02:23:23;;;;;;;11.77;6.75;;;19.70;54.40;;;;;;4902361;29;20482;-75
2022/11/24 02:26:19;;;;;;;13.15;6.20;;;19.70;54.40;;;;;;4902555;29;20043;-74
2022/11/24 02:28:45;;;;;;;10.48;6.05;;;19.70;54.40;;;;;;4924640;29;20459;-73
2022/11/24 02:31:11;;;;;;;11.93;6.35;;;19.70;54.40;;;;;;4906048;29;20051;-74
2022/11/24 02:33:37;;;;;;;11.48;6.45;;;19.70;54.40;;;;;;4912065;29;20052;-73
2022/11/24 02:36:03;;;;;;;10.68;6.13;;;19.70;54.40;;;;;;4929608;29;20051;-75
2022/11/24 02:38:34;;;;;;;9.95;5.55;;;19.70;54.40;;;;;;4910802;29;20091;-75
2022/11/24 02:41:04;;;;;;;10.65;5.38;;;19.70;54.40;;;;;;4891907;29;20040;-75
2022/11/24 02:43:35;;;;;;;12.40;6.07;;;19.70;54.40;;;;;;4905310;29;20546;-73
2022/11/24 02:46:01;;;;;;;10.88;5.57;;;19.70;54.30;;;;;;4906148;29;20047;-74
2022/11/24 02:48:27;;;;;;;10.93;5.63;;;19.60;54.30;;;;;;4893480;29;20369;-74
2022/11/24 02:50:52;;;;;;;10.98;5.75;;;19.70;54.30;;;;;;4907606;29;20456;-74
2022/11/24 02:53:18;;;;;;;10.73;5.45;;;19.60;54.30;;;;;;4907823;29;20087;-74
2022/11/24 02:55:44;;;;;;;8.98;5.03;;;19.60;55.00;;;;;;4895763;29;20043;-73
2022/11/24 02:58:09;;;;;;;11.77;5.88;;;19.60;54.30;;;;;;4912831;29;20051;-74
2022/11/24 03:00:35;;;;;;;8.23;4.80;;;19.60;54.30;;;;;;4893419;29;20492;-74
2022/11/24 03:03:01;;;;;;;11.98;5.63;;;19.60;54.20;;;;;;4928517;29;20044;-74
2022/11/24 03:05:27;;;;;;;10.50;4.97;;;19.60;54.20;;;;;;4913906;29;20056;-74
2022/11/24 03:07:52;;;;;;;11.05;5.35;;;19.60;54.20;;;;;;4895531;29;20058;-74
2022/11/24 03:10:18;;;;;;;7.97;4.60;;;19.60;54.20;;;;;;4905365;29;20048;-74
2022/11/24 03:12:44;;;;;;;12.00;5.60;;;19.60;55.00;;;;;;4913590;29;20407;-75
2022/11/24 03:15:10;;;;;;;8.57;4.93;;;19.60;54.20;;;;;;4910005;29;20043;-74
2022/11/24 03:17:35;;;;;;;9.90;5.00;;;19.60;54.20;;;;;;4911437;29;20287;-74
2022/11/24 03:20:01;;;;;;;10.52;5.20;;;19.60;54.20;;;;;;4928167;29;20438;-74
2022/11/24 03:22:28;;;;;;;10.55;5.45;;;19.60;54.10;;;;;;4913258;29;20035;-74
2022/11/24 03:24:54;;;;;;;9.27;5.00;;;19.60;54.10;;;;;;4896601;29;20496;-73
2022/11/24 03:27:19;;;;;;;12.73;5.15;;;19.60;54.10;;;;;;4923107;29;20051;-74
2022/11/24 03:29:45;;;;;;;9.45;4.90;;;19.60;54.10;;;;;;4910540;29;20043;-76
2022/11/24 03:32:11;;;;;;;8.05;5.03;;;19.60;54.00;;;;;;4928073;29;20059;-74
2022/11/24 03:34:36;;;;;;;8.23;4.75;;;19.70;54.10;;;;;;4910874;29;20049;-74
2022/11/24 03:37:02;;;;;;;8.23;4.13;;;19.70;54.00;;;;;;4912273;29;20544;-73
2022/11/24 03:39:27;;;;;;;7.47;4.38;;;19.70;54.00;;;;;;4909367;29;20048;-75
2022/11/24 03:41:53;;;;;;;7.78;4.50;;;19.70;54.00;;;;;;4929697;29;20117;-74
2022/11/24 03:44:19;;;;;;;7.57;4.40;;;19.70;53.90;;;;;;4909553;29;20051;-74
2022/11/24 03:46:44;;;;;;;8.93;4.32;;;19.70;53.90;;;;;;4927449;29;20044;-74
2022/11/24 03:49:10;;;;;;;7.50;4.15;;;19.70;53.90;;;;;;4912208;29;20508;-74
2022/11/24 03:51:35;;;;;;;9.75;4.47;;;19.70;53.90;;;;;;4908789;29;20575;-74
2022/11/24 03:54:01;;;;;;;9.18;4.30;;;19.70;53.90;;;;;;4927184;29;20156;-75
2022/11/24 03:56:27;;;;;;;7.78;3.85;;;19.70;53.80;;;;;;4910746;29;20040;-73
2022/11/24 03:58:53;;;;;;;8.35;4.43;;;19.70;53.90;;;;;;4887380;29;20400;-75
2022/11/24 04:01:18;;;;;;;9.63;4.20;;;19.70;53.90;;;;;;4906359;29;20535;-75
2022/11/24 04:03:44;;;;;;;8.00;4.10;;;19.70;53.80;;;;;;4895436;29;20403;-72
2022/11/24 04:06:10;;;;;;;9.43;4.38;;;19.70;53.80;;;;;;4904618;29;20062;-75
2022/11/24 04:08:36;;;;;;;7.72;4.20;;;19.70;53.80;;;;;;4927916;29;20662;-74
2022/11/24 04:11:02;;;;;;;6.85;3.85;;;19.70;53.80;;;;;;4909555;29;20154;-73
2022/11/24 04:13:27;;;;;;;5.97;3.67;;;19.70;53.80;;;;;;4919127;29;20126;-75
2022/11/24 04:15:53;;;;;;;7.57;4.10;;;19.70;53.80;;;;;;4910834;29;20036;-73
2022/11/24 04:18:19;;;;;;;9.20;4.03;;;19.70;53.80;;;;;;4907430;29;20445;-74
2022/11/24 04:20:45;;;;;;;6.95;4.07;;;19.70;54.60;;;;;;4907252;29;20070;-75
2022/11/24 04:23:10;;;;;;;7.82;3.70;;;19.70;53.80;;;;;;4907679;29;20511;-74
2022/11/24 04:25:36;;;;;;;8.15;4.20;;;19.70;53.80;;;;;;4922567;29;20811;-74
2022/11/24 04:28:03;;;;;;;7.43;3.50;;;19.70;53.80;;;;;;4901323;29;20052;-74
2022/11/24 04:30:29;;;;;;;7.53;3.72;;;19.70;53.80;;;;;;4921237;29;20058;-75
2022/11/24 04:32:56;;;;;;;9.13;3.97;;;19.70;53.80;;;;;;4928446;29;20044;-75
2022/11/24 04:35:21;;;;;;;7.10;3.55;;;19.70;53.80;;;;;;4906357;29;20107;-74
2022/11/24 04:37:47;;;;;;;6.80;3.60;;;19.70;53.80;;;;;;4904198;29;20100;-75
2022/11/24 04:40:13;;;;;;;6.07;3.17;;;19.70;53.80;;;;;;4908114;29;21089;-75
2022/11/24 04:42:38;;;;;;;7.53;3.67;;;19.70;53.80;;;;;;4911303;29;20627;-74
2022/11/24 04:45:05;;;;;;;7.47;3.42;;;19.70;53.80;;;;;;4906615;29;20035;-74
2022/11/24 04:47:31;;;;;;;7.30;3.58;;;19.70;53.80;;;;;;4905543;29;20500;-74
2022/11/24 04:49:56;;;;;;;9.27;3.70;;;19.70;53.80;;;;;;4910235;29;20050;-74
2022/11/24 04:52:23;;;;;;;6.45;3.65;;;19.70;53.80;;;;;;4909849;29;20063;-74
2022/11/24 04:54:49;;;;;;;6.60;3.40;;;19.60;53.80;;;;;;4912562;29;20055;-74
2022/11/24 04:57:21;;;;;;;7.88;3.50;;;19.60;53.80;;;;;;4904745;29;20396;-74
2022/11/24 04:59:47;;;;;;;6.70;3.35;;;19.60;53.80;;;;;;4924189;29;20044;-74
2022/11/24 05:02:13;;;;;;;6.97;2.95;;;19.70;53.80;;;;;;4908435;29;20047;-74
2022/11/24 05:04:39;;;;;;;6.65;3.20;;;19.60;53.80;;;;;;4911140;29;20044;-74
2022/11/24 05:07:05;;;;;;;6.40;3.15;;;19.60;54.50;;;;;;4894864;29;20040;-75
2022/11/24 05:09:31;;;;;;;8.55;3.45;;;19.60;53.80;;;;;;4906750;29;20059;-74
2022/11/24 05:11:56;;;;;;;6.18;3.17;;;19.70;53.80;;;;;;4897542;29;20042;-74
2022/11/24 05:14:22;;;;;;;5.57;2.85;;;19.60;53.80;;;;;;4913692;29;20043;-74
2022/11/24 05:16:47;;;;;;;6.43;3.38;;;19.60;53.70;;;;;;4927442;29;20044;-74
2022/11/24 05:19:13;;;;;;;5.82;3.33;;;19.70;53.70;;;;;;4911377;29;21311;-74
2022/11/24 05:21:39;;;;;;;7.85;3.28;;;19.70;53.70;;;;;;4915304;29;20086;-74
2022/11/24 05:24:05;;;;;;;8.25;3.25;;;19.70;53.70;;;;;;4914396;29;20437;-74
2022/11/24 05:26:30;;;;;;;6.97;2.90;;;19.60;53.70;;;;;;4929528;29;20050;-74
2022/11/24 05:28:56;;;;;;;8.32;3.40;;;19.60;53.70;;;;;;4916036;29;20039;-74
2022/11/24 05:31:21;;;;;;;5.93;3.03;;;19.60;53.70;;;;;;4916457;29;20058;-74
2022/11/24 05:33:47;;;;;;;6.80;2.90;;;19.60;53.70;;;;;;4917256;29;20111;-75
2022/11/24 05:36:51;;;;;;;6.55;3.00;;;19.60;53.70;;;;;;4923144;29;20044;-74
2022/11/24 05:38:58;;;;;;;7.65;2.78;;;19.60;53.70;;;;;;4914371;29;20563;-74
2022/11/24 05:41:24;;;;;;;7.00;2.90;;;19.60;53.70;;;;;;4931603;29;20126;-74
2022/11/24 05:43:49;;;;;;;8.27;3.00;;;19.60;53.70;;;;;;4931780;29;20032;-75
2022/11/24 05:46:15;;;;;;;7.63;2.78;;;19.60;53.70;;;;;;4928676;29;20492;-75
2022/11/24 05:48:40;;;;;;;7.55;2.83;;;19.60;53.70;;;;;;4914631;29;20027;-74
2022/11/24 05:51:06;;;;;;;4.88;2.60;;;19.60;53.70;;;;;;4931929;29;20051;-69
2022/11/24 05:53:31;;;;;;;5.43;2.60;;;19.60;53.70;;;;;;4912852;29;20051;-73
2022/11/24 05:55:57;;;;;;;6.05;2.83;;;19.60;53.80;;;;;;4923319;29;20134;-74
2022/11/24 05:58:23;;;;;;;8.13;2.90;;;19.70;54.00;;;;;;4924571;29;20059;-73
2022/11/24 06:00:48;;;;;;;6.65;2.85;;;19.70;53.90;;;;;;4921065;29;20043;-71
2022/11/24 06:03:14;;;;;;;4.82;2.50;;;19.70;54.00;;;;;;4918853;29;20599;-72
2022/11/24 06:05:45;;;;;;;5.57;2.80;;;19.80;53.90;;;;;;4909015;29;20507;-74
2022/11/24 06:08:11;;;;;;;7.20;2.60;;;19.70;53.80;;;;;;4897777;29;20044;-73
2022/11/24 06:10:37;;;;;;;5.57;2.60;;;19.80;53.80;;;;;;4922419;29;20044;-72
2022/11/24 06:13:06;;;;;;;5.25;2.35;;;19.80;53.80;;;;;;4904767;29;20051;-74
2022/11/24 06:15:36;;;;;;;5.05;2.35;;;19.80;53.80;;;;;;4903873;29;20555;-74
2022/11/24 06:18:02;;;;;;;10.07;2.65;;;19.80;53.70;;;;;;4918345;29;20087;-74
2022/11/24 06:20:28;;;;;;;5.88;2.42;;;19.80;53.70;;;;;;4916502;29;20047;-75
2022/11/24 06:22:56;;;;;;;7.00;2.80;;;19.80;53.80;;;;;;4897756;29;20499;-72
2022/11/24 06:25:21;;;;;;;8.50;2.35;;;19.80;53.90;;;;;;4921265;29;20492;-73
2022/11/24 06:27:47;;;;;;;6.32;2.60;;;19.80;54.00;;;;;;4921843;29;20039;-73
2022/11/24 06:30:13;;;;;;;5.85;2.53;;;19.80;54.10;;;;;;4897293;29;20063;-74
2022/11/24 06:32:43;;;;;;;4.18;2.08;;;19.70;54.20;;;;;;4900870;29;20051;-74
2022/11/24 06:35:10;;;;;;;5.93;2.38;;;19.80;54.20;;;;;;4919011;29;20047;-74
2022/11/24 06:37:36;;;;;;;5.10;2.40;;;19.70;54.30;;;;;;4917883;29;20043;-74
2022/11/24 06:40:02;;;;;;;5.93;2.33;;;19.80;54.40;;;;;;4897766;29;20130;-73
2022/11/24 06:42:27;;;;;;;8.05;2.30;;;19.80;54.40;;;;;;4885749;29;20134;-74
2022/11/24 06:44:53;;;;;;;7.30;2.03;;;19.80;54.50;;;;;;4902046;29;20050;-73
2022/11/24 06:47:19;;;;;;;7.13;2.25;;;19.80;54.60;;;;;;4917100;29;20097;-74
2022/11/24 06:49:44;;;;;;;5.70;2.03;;;19.80;54.60;;;;;;4898193;29;20216;-74
2022/11/24 06:52:10;;;;;;;5.95;2.15;;;19.80;54.60;;;;;;4915502;29;20048;-75
2022/11/24 06:54:35;;;;;;;7.45;2.33;;;19.90;54.60;;;;;;4896967;29;22091;-76
2022/11/24 06:57:01;;;;;;;5.70;2.33;;;19.80;54.60;;;;;;4897925;29;20036;-74
2022/11/24 06:59:26;;;;;;;7.65;2.42;;;19.90;54.60;;;;;;4916610;29;20134;-77
2022/11/24 07:01:52;;;;;;;4.03;2.05;;;19.90;54.60;;;;;;4900123;29;20083;-74
2022/11/24 07:04:18;;;;;;;6.65;2.17;;;19.90;54.60;;;;;;4898215;29;20552;-73
2022/11/24 07:06:44;;;;;;;6.05;2.38;;;19.80;54.60;;;;;;4916919;29;20055;-72
2022/11/24 07:09:11;;;;;;;7.15;2.30;;;19.80;54.70;;;;;;4919806;29;20056;-73
2022/11/24 07:11:37;;;;;;;7.85;1.92;;;19.70;54.70;;;;;;4900054;29;20522;-73
2022/11/24 07:14:04;;;;;;;9.68;2.45;;;19.70;54.80;;;;;;4926654;29;20507;-72
2022/11/24 07:16:30;;;;;;;9.07;2.03;;;19.70;54.90;;;;;;4909865;29;20035;-71
2022/11/24 07:18:56;;;;;;;8.90;2.45;;;19.70;55.10;;;;;;4936624;29;20066;-71
2022/11/24 07:21:23;;;;;;;10.00;2.20;;;19.70;55.20;;;;;;4920954;29;20051;-71
2022/11/24 07:23:54;;;;;;;7.47;2.40;;;19.60;55.20;;;;;;4930002;29;20067;-72
2022/11/24 07:26:21;;;;;;;4.40;2.17;;;19.60;55.20;;;;;;4910300;29;20071;-72
2022/11/24 07:28:46;;;;;;;10.13;2.20;;;19.60;55.20;;;;;;4894995;29;20523;-73
2022/11/24 07:31:17;;;;;;;4.93;1.90;;;19.60;55.20;;;;;;4922094;29;20071;-72
2022/11/24 07:33:48;;;;;;;6.75;2.10;;;19.60;55.30;;;;;;4881887;29;20508;-70
2022/11/24 07:36:14;;;;;;;9.07;2.20;;;19.60;55.30;;;;;;4922369;29;20047;-73
2022/11/24 07:38:39;;;;;;;6.80;1.90;;;19.60;55.30;;;;;;4889753;29;20048;-72
2022/11/24 07:41:07;;;;;;;6.50;1.88;;;19.50;55.30;;;;;;4899061;29;20520;-72
2022/11/24 07:43:35;;;;;;;6.28;2.25;;;19.50;55.30;;;;;;4920369;29;20040;-71
2022/11/24 07:46:00;;;;;;;10.57;1.80;;;19.60;55.40;;;;;;4912799;29;20051;-72
2022/11/24 07:48:26;;;;;;;4.38;1.75;;;19.60;55.40;;;;;;4896463;29;20102;-72
2022/11/24 07:50:52;;;;;;;11.40;2.00;;;19.60;55.50;;;;;;4880801;29;21230;-71
2022/11/24 07:53:18;;;;;;;5.25;1.92;;;19.60;55.50;;;;;;4900500;29;20065;-71
2022/11/24 07:55:51;;;;;;;4.85;2.00;;;19.60;55.40;;;;;;4900031;29;20048;-71
2022/11/24 07:58:16;;;;;;;9.05;2.17;;;19.60;55.40;;;;;;4926017;29;20054;-72
2022/11/24 08:00:42;;;;;;;4.18;1.90;;;19.60;55.30;;;;;;4911370;29;20051;-73
2022/11/24 08:03:07;;;;;;;9.82;2.05;;;19.60;55.30;;;;;;4899139;29;20043;-70
2022/11/24 08:05:35;;;;;;;5.30;1.88;;;19.60;55.30;;;;;;4920693;29;20588;-73
2022/11/24 08:08:03;;;;;;;4.63;1.73;;;19.60;55.30;;;;;;4903124;29;20055;-70
2022/11/24 08:10:29;;;;;;;4.45;2.10;;;19.70;55.40;;;;;;4927219;29;20048;-72
2022/11/24 08:12:59;;;;;;;6.90;1.88;;;19.70;55.30;;;;;;4925937;29;20042;-71
2022/11/24 08:15:25;;;;;;;7.72;2.30;;;19.70;55.30;;;;;;4930306;29;20047;-69
2022/11/24 08:17:50;;;;;;;9.50;2.10;;;19.70;55.30;;;;;;4890595;29;21123;-69
2022/11/24 08:21:03;;;;;;;5.65;1.80;;;19.70;55.30;;;;;;4849361;29;20059;-72
2022/11/24 08:23:29;;;;;;;7.18;2.03;;;19.70;55.40;;;;;;4865209;29;20052;-70
2022/11/24 08:25:55;;;;;;;6.63;2.20;;;19.70;55.30;;;;;;4915765;29;20119;-73
2022/11/24 08:28:22;;;;;;;4.10;1.85;;;19.80;55.30;;;;;;4920917;29;20062;-72
2022/11/24 08:30:47;;;;;;;4.28;1.88;;;19.80;55.10;;;;;;4902529;29;20075;-73
2022/11/24 08:33:13;;;;;;;10.32;2.40;;;19.80;54.90;;;;;;4901195;29;20126;-74
2022/11/24 08:35:39;;;;;;;15.63;2.45;;;19.70;54.50;;;;;;4901106;29;20126;-72
2022/11/24 08:38:05;;;;;;;12.77;2.25;;;19.70;53.80;;;;;;4919717;29;20475;-70
2022/11/24 08:40:31;;;;;;;9.10;2.40;;;19.70;53.60;;;;;;4902415;29;20112;-70
2022/11/24 08:43:00;;;;;;;11.20;2.15;;;19.70;53.50;;;;;;4917819;29;20055;-72
2022/11/24 08:45:26;;;;;;;13.35;2.70;;;19.70;53.30;;;;;;4921459;29;20062;-70
2022/11/24 08:47:54;;;;;;;7.28;2.22;;;19.80;53.30;;;;;;4920583;29;20532;-70
2022/11/24 08:50:21;;;;;;;9.60;1.90;;;19.80;53.30;;;;;;4894386;29;20396;-69
2022/11/24 08:52:46;;;;;;;6.78;2.13;;;19.90;53.30;;;;;;4921895;29;20048;-69
2022/11/24 08:55:12;;;;;;;11.57;1.80;;;19.90;53.40;;;;;;4918801;29;20039;-71
2022/11/24 08:57:37;;;;;;;5.47;1.83;;;19.90;53.30;;;;;;4914844;29;20134;-68
2022/11/24 09:00:04;;;;;;;7.30;2.10;;;19.90;53.30;;;;;;4921496;29;20509;-68
2022/11/24 09:02:30;;;;;;;7.43;2.33;;;20.00;53.40;;;;;;4904075;29;20047;-70
2022/11/24 09:04:55;;;;;;;6.50;1.58;;;20.00;53.40;;;;;;4922474;29;20051;-69
2022/11/24 09:07:21;;;;;;;7.65;2.10;;;20.00;53.50;;;;;;4891758;29;20071;-68
2022/11/24 09:09:47;;;;;;;7.40;1.95;;;20.00;53.40;;;;;;4919330;29;20067;-69
2022/11/24 09:12:12;;;;;;;8.88;2.28;;;20.10;53.40;;;;;;4924094;29;20047;-70
2022/11/24 09:14:41;;;;;;;8.77;2.00;;;20.10;53.50;;;;;;4918012;29;20059;-72
2022/11/24 09:17:06;;;;;;;8.45;1.95;;;20.10;54.20;;;;;;4923816;29;20059;-72
2022/11/24 09:19:32;;;;;;;6.82;1.88;;;20.10;53.50;;;;;;4904328;29;20499;-73
2022/11/24 09:21:57;;;;;;;8.25;1.92;;;20.10;53.50;;;;;;4905182;29;20079;-73
2022/11/24 09:24:23;;;;;;;6.90;2.30;;;20.10;53.50;;;;;;4921093;29;20051;-70
2022/11/24 09:26:49;;;;;;;7.38;1.95;;;20.10;53.50;;;;;;4924432;29;20043;-74
2022/11/24 09:29:14;;;;;;;5.25;2.28;;;20.20;53.60;;;;;;4926318;29;20036;-72
2022/11/24 09:31:40;;;;;;;6.93;2.15;;;20.20;53.60;;;;;;4910074;29;20043;-68
2022/11/24 09:34:11;;;;;;;7.53;1.98;;;20.20;53.60;;;;;;4915931;29;20488;-68
2022/11/24 09:36:36;;;;;;;5.15;1.38;;;20.20;53.60;;;;;;4910753;29;20158;-71
2022/11/24 09:39:02;;;;;;;6.05;1.60;;;20.20;53.70;;;;;;4921164;29;20134;-69
2022/11/24 09:41:44;;;;;;;7.78;1.98;;;20.20;53.80;;;;;;4911524;29;20036;-72
2022/11/24 09:44:33;;;;;;;5.63;1.80;;;20.20;53.70;;;;;;4927553;29;20059;-70
2022/11/24 09:47:40;;;;;;;8.55;1.90;;;20.20;53.80;;;;;;4929175;29;20119;-72
2022/11/24 09:50:12;;;;;;;7.07;1.88;;;20.20;53.80;;;;;;4881162;29;20484;-68
2022/11/24 09:52:43;;;;;;;5.20;1.80;;;20.20;53.90;;;;;;4917128;29;20056;-77
2022/11/24 09:55:27;;;;;;;4.93;1.67;;;20.20;53.90;;;;;;4912769;29;20051;-73
2022/11/24 09:58:20;;;;;;;6.78;1.77;;;20.20;53.90;;;;;;4929184;29;20035;-73
2022/11/24 10:00:49;;;;;;;4.85;2.00;;;20.30;54.00;;;;;;4908498;29;20532;-73
2022/11/24 10:03:24;;;;;;;7.55;1.83;;;20.30;54.10;;;;;;4898865;29;20040;-74
2022/11/24 10:05:50;;;;;;;4.10;2.00;;;20.30;54.10;;;;;;4902637;29;20051;-74
2022/11/24 10:08:44;;;;;;;6.65;1.90;;;20.30;54.10;;;;;;4927546;29;20160;-74
2022/11/24 10:11:19;;;;;;;8.05;1.60;;;20.30;54.10;;;;;;4903322;29;20062;-74
2022/11/24 10:14:00;;;;;;;3.80;1.70;;;20.30;54.10;;;;;;4913807;29;20047;-75
2022/11/24 10:16:44;;;;;;;4.53;1.75;;;20.30;54.10;;;;;;4913509;29;20081;-75
2022/11/24 10:19:35;;;;;;;4.78;1.50;;;20.40;54.10;;;;;;4928263;29;20046;-75
2022/11/24 10:22:27;;;;;;;5.57;1.60;;;20.40;54.10;;;;;;4903562;29;20115;-76
2022/11/24 10:24:53;;;;;;;5.82;1.52;;;20.40;54.20;;;;;;4913706;29;20039;-75
2022/11/24 10:27:25;;;;;;;4.38;1.60;;;20.40;54.10;;;;;;4930141;29;20113;-75
2022/11/24 10:29:51;;;;;;;5.57;1.63;;;20.40;54.20;;;;;;4929333;29;20130;-75
2022/11/24 10:32:19;;;;;;;5.05;1.52;;;20.40;54.20;;;;;;4929447;29;20047;-76
2022/11/24 10:34:49;;;;;;;8.25;1.55;;;20.40;54.20;;;;;;4914714;29;20048;-76
2022/11/24 10:37:35;;;;;;;5.53;1.50;;;20.40;54.20;;;;;;4926868;29;20675;-77
2022/11/24 10:40:13;;;;;;;2.80;1.25;;;20.40;54.20;;;;;;4925838;29;20098;-76
2022/11/24 10:42:39;;;;;;;5.70;1.43;;;20.40;54.20;;;;;;4911733;29;20705;-73
2022/11/24 10:45:21;;;;;;;3.58;1.08;;;20.40;54.20;;;;;;4928887;29;20126;-75
2022/11/24 10:47:47;;;;;;;2.83;1.27;;;20.40;54.20;;;;;;4920770;29;20118;-72
2022/11/24 10:50:40;;;;;;;2.95;1.30;;;20.40;54.10;;;;;;4920814;29;20044;-74
2022/11/24 10:53:34;;;;;;;4.25;1.45;;;20.40;54.00;;;;;;4926929;29;20035;-74
2022/11/24 10:56:03;;;;;;;5.57;1.70;;;20.40;54.00;;;;;;4912248;29;20048;-73
2022/11/24 10:58:34;;;;;;;3.78;1.45;;;20.30;54.10;;;;;;4910586;29;20036;-77
2022/11/24 11:01:12;;;;;;;6.65;1.30;;;20.30;54.10;;;;;;4911733;29;20079;-76
2022/11/24 11:03:56;;;;;;;3.35;1.25;;;20.20;54.00;;;;;;4907320;29;20055;-76
2022/11/24 11:06:27;;;;;;;3.95;1.25;;;20.20;54.00;;;;;;4928731;29;20047;-72
2022/11/24 11:09:05;;;;;;;4.75;1.23;;;20.20;54.20;;;;;;4929810;29;20055;-72
2022/11/24 11:11:31;;;;;;;3.00;1.10;;;20.20;54.40;;;;;;4926957;29;20054;-74
2022/11/24 11:13:58;;;;;;;3.10;1.05;;;20.20;54.50;;;;;;4930885;29;20032;-73
2022/11/24 11:16:32;;;;;;;2.65;1.10;;;20.20;54.60;;;;;;4929059;29;20047;-74
2022/11/24 11:19:00;;;;;;;3.63;1.20;;;20.20;54.60;;;;;;4909880;29;20373;-74
2022/11/24 11:21:46;;;;;;;3.80;1.30;;;20.10;54.50;;;;;;4910460;29;20069;-72
2022/11/24 11:24:17;;;;;;;3.85;1.30;;;20.10;54.50;;;;;;4904353;29;20064;-71
2022/11/24 11:26:43;;;;;;;4.40;1.25;;;20.20;54.60;;;;;;4913318;29;20063;-72
2022/11/24 11:29:13;;;;;;;3.60;1.20;;;20.20;54.50;;;;;;4908969;29;20043;-73
2022/11/24 11:31:39;;;;;;;4.35;1.30;;;20.20;54.50;;;;;;4912555;29;20056;-73
2022/11/24 11:34:08;;;;;;;2.75;1.10;;;20.20;54.50;;;;;;4912941;29;20087;-72
2022/11/24 11:36:38;;;;;;;3.22;1.00;;;20.20;54.40;;;;;;4912081;29;20043;-72
2022/11/24 11:39:03;;;;;;;2.83;1.10;;;20.20;54.40;;;;;;4910708;29;20052;-73
2022/11/24 11:41:33;;;;;;;3.17;1.13;;;20.20;54.40;;;;;;4905123;29;20052;-73
2022/11/24 11:44:31;;;;;;;4.03;1.10;;;20.30;54.40;;;;;;4906614;29;20515;-72
2022/11/24 11:46:59;;;;;;;3.55;1.23;;;20.30;54.30;;;;;;4866308;29;20524;-73
2022/11/24 11:49:25;;;;;;;3.22;1.15;;;20.30;54.20;;;;;;4921384;29;20054;-74
2022/11/24 11:52:26;;;;;;;2.95;1.10;;;20.30;54.20;;;;;;4912585;29;20404;-74
2022/11/24 11:55:25;;;;;;;2.70;0.98;;;20.30;54.10;;;;;;4904169;29;20120;-74
2022/11/24 11:58:30;;;;;;;3.47;1.20;;;20.40;54.00;;;;;;4911665;29;20118;-73
2022/11/24 12:01:04;;;;;;;3.75;1.02;;;20.40;53.90;;;;;;4907814;29;20090;-74
2022/11/24 12:03:42;;;;;;;4.88;1.20;;;20.40;54.00;;;;;;4928573;29;20059;-74
2022/11/24 12:06:26;;;;;;;6.30;1.10;;;20.50;54.00;;;;;;4910484;29;20150;-74
2022/11/24 12:09:19;;;;;;;4.10;1.17;;;20.50;53.90;;;;;;4912277;29;20051;-73
2022/11/24 12:12:18;;;;;;;3.80;1.15;;;20.50;53.80;;;;;;4902911;29;20067;-75
2022/11/24 12:14:52;;;;;;;3.70;0.88;;;20.50;53.80;;;;;;4911609;29;20047;-73
2022/11/24 12:17:36;;;;;;;4.32;1.02;;;20.50;53.80;;;;;;4928663;29;20500;-71
2022/11/24 12:20:26;;;;;;;3.70;0.80;;;20.50;53.70;;;;;;4921807;29;20035;-73
2022/11/24 12:23:15;;;;;;;2.92;1.08;;;20.60;53.80;;;;;;4911869;29;20059;-78
2022/11/24 12:25:52;;;;;;;2.30;1.00;;;20.50;53.70;;;;;;4908518;29;20048;-77
2022/11/24 12:28:50;;;;;;;3.58;1.00;;;20.60;53.70;;;;;;4911755;29;20056;-77
2022/11/24 12:31:36;;;;;;;;;;;20.60;53.50;;;;;;4906902;29;20083;-77
2022/11/24 12:34:25;;;;;;;4.70;1.48;;;20.50;53.40;;;;;;4895510;29;20741;-76
2022/11/24 12:37:03;;;;;;;1.98;0.80;;;20.50;53.60;;;;;;4911565;29;20091;-81
2022/11/24 12:39:47;;;;;;;3.13;1.00;;;20.50;53.30;;;;;;4912450;29;20065;-77
2022/11/24 12:42:51;;;;;;;2.55;0.80;;;20.50;53.30;;;;;;4928590;29;20048;-80
2022/11/24 12:45:40;;;;;;;4.05;1.00;;;20.50;53.30;;;;;;4927128;29;20085;-78
2022/11/24 12:48:05;;;;;;;2.33;0.90;;;20.50;53.30;;;;;;4878138;29;20059;-77
2022/11/24 12:50:36;;;;;;;6.65;1.02;;;20.50;53.30;;;;;;4906707;29;20044;-76
2022/11/24 12:53:11;;;;;;;3.45;0.90;;;20.50;53.30;;;;;;4912101;29;20047;-80
2022/11/24 12:55:38;;;;;;;2.05;0.93;;;20.50;53.30;;;;;;4898785;29;20413;-82